Time;durP1;ratioP1;P1;durP2;ratioP2;P2;SDS_P1;SDS_P2;PMS_P1;PMS_P2;Temp;Humidity;BMP_temperature;BMP_pressure;BME280_temperature;BME280_humidity;BME280_pressure;Samples;Min_cycle;Max_cycle;Signal;HPM_P1;HPM_P2
2023/12/31 00:06:05;;;;;;;15.60;8.40;;;;;;;4.07;100.00;100158.20;682097;1265;138520;-83
2023/12/31 00:21:09;;;;;;;16.40;7.20;;;;;;;4.13;100.00;100163.55;682104;1265;138616;-83
2023/12/31 00:36:13;;;;;;;17.10;7.30;;;;;;;4.08;100.00;100168.85;682145;1260;138689;-83
2023/12/31 00:51:17;;;;;;;21.10;10.40;;;;;;;3.88;100.00;100175.66;682007;1265;138679;-82
2023/12/31 01:06:21;;;;;;;39.20;19.20;;;;;;;3.62;99.66;100176.18;681986;1265;139403;-82
2023/12/31 01:21:25;;;;;;;39.90;17.90;;;;;;;3.25;98.73;100181.84;681944;1265;139568;-83
2023/12/31 01:36:29;;;;;;;32.50;14.00;;;;;;;2.98;97.54;100176.81;682070;1265;138894;-83
2023/12/31 01:51:33;;;;;;;44.10;18.20;;;;;;;2.80;97.20;100191.34;681917;1265;140148;-83
2023/12/31 02:06:39;;;;;;;59.00;23.30;;;;;;;2.86;97.45;100195.48;682116;1265;138909;-83
2023/12/31 02:21:43;;;;;;;31.20;16.60;;;;;;;3.23;98.87;100207.01;682067;1265;139155;-83
2023/12/31 02:36:46;;;;;;;23.70;13.40;;;;;;;3.62;100.00;100207.13;682088;1265;139357;-82
2023/12/31 02:51:50;;;;;;;24.30;10.80;;;;;;;3.81;100.00;100220.20;681875;1264;139496;-83
2023/12/31 03:06:54;;;;;;;26.10;13.20;;;;;;;3.92;100.00;100225.91;682063;1265;142022;-83
2023/12/31 03:21:57;;;;;;;22.20;11.70;;;;;;;4.01;100.00;100228.29;682075;1265;138861;-83
2023/12/31 03:37:01;;;;;;;26.90;13.30;;;;;;;4.01;100.00;100225.18;682180;1264;139194;-83
2023/12/31 03:52:06;;;;;;;21.60;10.10;;;;;;;3.79;100.00;100223.45;681957;1266;140794;-82
2023/12/31 04:07:10;;;;;;;25.90;9.20;;;;;;;4.16;100.00;100231.02;682032;1266;139005;-83
2023/12/31 04:22:14;;;;;;;23.50;10.70;;;;;;;4.43;100.00;100228.80;682027;1267;139893;-84
2023/12/31 04:37:19;;;;;;;22.80;9.10;;;;;;;4.68;100.00;100224.48;682202;1273;140650;-80
2023/12/31 04:52:24;;;;;;;26.70;13.00;;;;;;;4.81;100.00;100216.86;681973;1269;138605;-83
2023/12/31 05:07:29;;;;;;;19.10;8.60;;;;;;;4.81;100.00;100225.52;682113;1267;138928;-83
2023/12/31 05:22:33;;;;;;;17.90;9.60;;;;;;;4.97;100.00;100231.81;682006;1261;138755;-80
2023/12/31 05:37:36;;;;;;;20.10;10.80;;;;;;;4.93;99.97;100235.73;682089;1263;138904;-81
2023/12/31 05:52:41;;;;;;;26.30;9.90;;;;;;;4.88;99.94;100234.51;681968;1260;139207;-79
2023/12/31 06:07:45;;;;;;;31.30;12.20;;;;;;;4.87;100.00;100232.46;682046;1265;138706;-83
2023/12/31 06:22:48;;;;;;;38.90;14.00;;;;;;;4.81;100.00;100241.83;682018;1260;139119;-80
2023/12/31 06:37:52;;;;;;;35.60;13.50;;;;;;;4.85;100.00;100246.61;682023;1264;138905;-83
2023/12/31 06:52:57;;;;;;;34.10;12.20;;;;;;;4.73;100.00;100248.75;681951;1262;139605;-83
2023/12/31 07:08:01;;;;;;;40.60;14.40;;;;;;;4.60;100.00;100262.58;682111;1261;139003;-83
2023/12/31 07:23:04;;;;;;;35.70;16.40;;;;;;;4.62;100.00;100260.39;681915;1264;139422;-81
2023/12/31 07:38:10;;;;;;;44.40;14.10;;;;;;;4.52;100.00;100266.03;681931;1259;139811;-81
2023/12/31 07:53:14;;;;;;;84.20;30.00;;;;;;;4.51;100.00;100270.60;681786;1260;140249;-82
2023/12/31 08:08:18;;;;;;;165.00;74.40;;;;;;;4.43;100.00;100266.72;681971;1260;139709;-82
2023/12/31 08:23:22;;;;;;;51.30;20.20;;;;;;;4.53;100.00;100269.98;681859;1260;139396;-81
2023/12/31 08:38:26;;;;;;;92.60;44.80;;;;;;;4.68;100.00;100274.56;681832;1262;139865;-81
2023/12/31 08:53:30;;;;;;;304.20;96.50;;;;;;;4.80;100.00;100279.34;681956;1260;139598;-81
2023/12/31 09:08:34;;;;;;;73.00;24.40;;;;;;;4.87;100.00;100278.04;681839;1265;139599;-81
2023/12/31 09:23:40;;;;;;;480.80;189.50;;;;;;;5.00;100.00;100271.98;681719;1261;229059;-81
2023/12/31 09:38:44;;;;;;;168.00;52.20;;;;;;;4.99;100.00;100275.20;681880;1261;139309;-81
2023/12/31 09:53:54;;;;;;;132.20;59.50;;;;;;;5.10;100.00;100258.17;681974;1265;139313;-80
2023/12/31 10:08:59;;;;;;;55.30;20.90;;;;;;;5.18;100.00;100254.86;681851;1264;139901;-82
2023/12/31 10:24:04;;;;;;;190.80;63.60;;;;;;;5.21;100.00;100245.62;681907;1263;139141;-81
2023/12/31 10:39:08;;;;;;;62.80;25.80;;;;;;;5.38;100.00;100224.42;681630;1260;140176;-83
2023/12/31 10:54:21;;;;;;;63.40;28.60;;;;;;;5.61;100.00;100217.64;682021;1265;139055;-83
2023/12/31 11:09:27;;;;;;;152.00;48.80;;;;;;;5.63;100.00;100196.38;681988;1261;139702;-83
2023/12/31 11:24:32;;;;;;;72.00;29.40;;;;;;;5.82;100.00;100175.98;682030;1261;139244;-80
2023/12/31 11:39:35;;;;;;;63.30;26.70;;;;;;;6.06;100.00;100160.64;682033;1263;139360;-81
2023/12/31 11:54:40;;;;;;;73.40;29.70;;;;;;;6.44;100.00;100138.64;682107;1262;139741;-81
2023/12/31 12:09:46;;;;;;;135.40;50.40;;;;;;;6.68;100.00;100111.16;682028;1260;139850;-81
2023/12/31 12:24:49;;;;;;;89.10;37.60;;;;;;;7.13;100.00;100101.70;682127;1262;139053;-82
2023/12/31 12:39:56;;;;;;;82.00;32.60;;;;;;;7.30;100.00;100099.02;682052;1262;140861;-83
2023/12/31 12:55:00;;;;;;;122.40;42.00;;;;;;;7.19;100.00;100076.56;682250;1264;139095;-82
2023/12/31 13:10:04;;;;;;;211.20;85.20;;;;;;;6.93;100.00;100063.05;681830;1264;140371;-83
2023/12/31 13:25:09;;;;;;;241.40;94.10;;;;;;;6.68;100.00;100048.21;681914;1261;139410;-81
2023/12/31 13:40:13;;;;;;;137.70;48.40;;;;;;;6.52;99.95;100040.55;681916;1265;139028;-81
2023/12/31 13:55:17;;;;;;;135.30;55.30;;;;;;;6.35;99.98;100025.13;681881;1265;140188;-81
2023/12/31 14:10:20;;;;;;;293.40;100.40;;;;;;;6.21;99.98;100003.23;681933;1264;139883;-81
2023/12/31 14:25:24;;;;;;;202.20;74.80;;;;;;;6.03;99.99;99987.19;681816;1263;139452;-81
2023/12/31 14:40:28;;;;;;;128.40;44.80;;;;;;;5.84;99.91;99967.91;681984;1265;138683;-83
2023/12/31 14:55:32;;;;;;;438.90;158.40;;;;;;;5.65;100.00;99956.80;682289;1265;138626;-81
2023/12/31 15:10:35;;;;;;;170.20;59.50;;;;;;;5.52;100.00;99944.17;682396;1262;22148;-81
2023/12/31 15:25:40;;;;;;;188.60;65.90;;;;;;;5.44;100.00;99933.83;682446;1262;138630;-82
2023/12/31 15:41:09;;;;;;;197.50;73.20;;;;;;;5.23;100.00;99921.43;682429;1264;22411;-82
2023/12/31 15:56:14;;;;;;;198.70;71.80;;;;;;;4.97;100.00;99920.33;682525;1264;22141;-82
2023/12/31 16:11:20;;;;;;;127.90;47.60;;;;;;;4.84;100.00;99916.39;682153;1265;138651;-83
2023/12/31 16:26:24;;;;;;;70.10;32.40;;;;;;;4.78;100.00;99910.22;681955;1264;138903;-82
2023/12/31 16:41:29;;;;;;;126.30;40.10;;;;;;;4.72;100.00;99903.19;682115;1265;139132;-83
2023/12/31 16:56:33;;;;;;;111.50;37.60;;;;;;;4.69;100.00;99901.45;682062;1265;139149;-83
2023/12/31 17:11:37;;;;;;;102.60;36.30;;;;;;;4.72;100.00;99896.27;682103;1266;138876;-82
2023/12/31 17:26:40;;;;;;;111.20;39.80;;;;;;;4.78;100.00;99886.48;682033;1264;139074;-82
2023/12/31 17:41:45;;;;;;;100.10;38.60;;;;;;;4.87;100.00;99871.65;682275;1266;138896;-83
2023/12/31 17:56:49;;;;;;;142.70;48.00;;;;;;;4.99;100.00;99861.30;682065;1265;139936;-82
2023/12/31 18:11:53;;;;;;;205.30;68.80;;;;;;;5.03;100.00;99853.03;681916;1273;139456;-81
2023/12/31 18:26:57;;;;;;;81.90;31.30;;;;;;;5.01;100.00;99829.77;681782;1269;139501;-81
2023/12/31 18:42:00;;;;;;;261.20;72.10;;;;;;;4.96;100.00;99812.77;682116;1264;139727;-81
2023/12/31 18:57:05;;;;;;;100.00;37.80;;;;;;;4.88;100.00;99786.96;681875;1265;139356;-80
2023/12/31 19:12:09;;;;;;;81.40;30.30;;;;;;;4.80;100.00;99775.46;682107;1262;139043;-81
2023/12/31 19:27:13;;;;;;;76.10;28.00;;;;;;;4.89;100.00;99779.66;681762;1265;141863;-80
2023/12/31 19:42:17;;;;;;;85.00;31.60;;;;;;;5.15;100.00;99770.30;682096;1266;138604;-80
2023/12/31 19:57:21;;;;;;;58.90;25.50;;;;;;;5.15;99.99;99749.90;682025;1263;138821;-80
2023/12/31 20:12:25;;;;;;;64.10;24.70;;;;;;;5.10;99.96;99732.04;681954;1267;138661;-81
2023/12/31 20:27:28;;;;;;;75.50;30.30;;;;;;;5.10;99.99;99734.96;681967;1265;139248;-80
2023/12/31 20:42:33;;;;;;;64.10;26.80;;;;;;;5.27;99.84;99734.98;682094;1264;138441;-81
2023/12/31 20:57:36;;;;;;;57.40;24.40;;;;;;;5.27;99.62;99717.42;681892;1264;138983;-80
2023/12/31 21:12:40;;;;;;;52.20;21.70;;;;;;;5.23;99.71;99684.95;681991;1265;138597;-79
2023/12/31 21:27:44;;;;;;;59.80;23.60;;;;;;;5.20;99.93;99684.47;681790;1266;156817;-81
2023/12/31 21:42:47;;;;;;;52.60;23.40;;;;;;;5.34;99.58;99689.33;682062;1262;139394;-81
2023/12/31 21:57:52;;;;;;;48.30;21.00;;;;;;;5.36;99.67;99668.02;681935;1273;139186;-81
2023/12/31 22:12:56;;;;;;;46.50;19.90;;;;;;;5.49;99.22;99653.52;681911;1264;138784;-81
2023/12/31 22:28:00;;;;;;;54.50;22.70;;;;;;;5.54;99.02;99625.73;681860;1265;139932;-81
2023/12/31 22:43:05;;;;;;;91.80;38.10;;;;;;;5.61;98.91;99597.64;682029;1264;138738;-81
2023/12/31 22:58:10;;;;;;;60.10;26.40;;;;;;;5.62;98.12;99577.73;681914;1260;139175;-80
2023/12/31 23:13:14;;;;;;;68.10;25.40;;;;;;;5.55;97.76;99571.02;681809;1260;139690;-81
2023/12/31 23:28:18;;;;;;;63.20;25.50;;;;;;;5.49;97.41;99572.52;681757;1266;139238;-81
2023/12/31 23:43:22;;;;;;;48.40;21.20;;;;;;;5.55;98.25;99576.02;681848;1260;138598;-80
2023/12/31 23:58:25;;;;;;;38.90;18.40;;;;;;;5.71;97.56;99599.80;681861;1263;139385;-80
